createdAt,value
2018-11-01T00:00:02.409Z,9.0
2018-11-01T00:05:02.943Z,8.8
2018-11-01T00:10:02.771Z,8.8
2018-11-01T00:15:02.423Z,8.8
2018-11-01T00:20:03.036Z,8.8
2018-11-01T00:25:02.645Z,8.8
2018-11-01T00:30:03.229Z,8.8
2018-11-01T00:35:02.814Z,9.0
2018-11-01T00:40:02.474Z,9.0
2018-11-01T00:45:03.111Z,9.1
2018-11-01T00:50:02.600Z,9.1
2018-11-01T00:55:03.163Z,9.3
2018-11-01T01:00:02.817Z,9.3
2018-11-01T01:05:02.909Z,9.5
2018-11-01T01:10:02.591Z,9.5
2018-11-01T01:15:03.191Z,9.5
2018-11-01T01:20:02.712Z,9.3
2018-11-01T01:25:02.365Z,9.3
2018-11-01T01:30:03.050Z,9.3
2018-11-01T01:35:02.632Z,9.3
2018-11-01T01:40:02.586Z,9.3
2018-11-01T01:45:03.192Z,9.5
2018-11-01T01:50:02.725Z,9.5
2018-11-01T01:55:02.394Z,9.3
2018-11-01T02:00:03.015Z,9.5
2018-11-01T02:05:02.659Z,9.5
2018-11-01T02:10:02.511Z,9.5
2018-11-01T02:15:03.047Z,9.5
2018-11-01T02:20:02.596Z,9.6
2018-11-01T02:25:03.247Z,9.6
2018-11-01T02:30:02.793Z,9.5
2018-11-01T02:35:02.483Z,9.3
2018-11-01T02:40:03.193Z,9.3
2018-11-01T02:45:02.777Z,9.5
2018-11-01T02:50:03.371Z,9.5
2018-11-01T02:55:02.976Z,9.5
2018-11-01T03:00:02.599Z,9.5
2018-11-01T03:05:03.144Z,9.5
2018-11-01T03:10:02.741Z,9.5
2018-11-01T03:15:02.351Z,9.5
2018-11-01T03:20:03.078Z,9.3
2018-11-01T03:25:02.736Z,9.3
2018-11-01T03:30:03.260Z,9.5
2018-11-01T03:35:02.810Z,9.5
2018-11-01T03:40:02.404Z,9.5
2018-11-01T03:45:02.942Z,9.6
2018-11-01T03:50:02.530Z,9.5
2018-11-01T03:55:03.155Z,9.3
2018-11-01T04:00:02.668Z,9.1
2018-11-01T04:05:03.305Z,9.0
2018-11-01T04:10:02.894Z,9.0
2018-11-01T04:15:02.519Z,8.8
2018-11-01T04:20:02.625Z,8.8
2018-11-01T04:25:03.223Z,8.8
2018-11-01T04:30:02.780Z,8.6
2018-11-01T04:35:02.349Z,8.5
2018-11-01T04:40:02.983Z,8.5
2018-11-01T04:45:02.614Z,8.0
2018-11-01T04:50:02.285Z,8.0
2018-11-01T04:55:02.970Z,7.9
2018-11-01T05:00:02.528Z,7.9
2018-11-01T05:05:02.369Z,7.6
2018-11-01T05:10:02.997Z,8.0
2018-11-01T05:15:02.703Z,8.0
2018-11-01T05:20:02.725Z,8.0
2018-11-01T05:25:02.615Z,8.3
2018-11-01T05:30:02.313Z,8.1
2018-11-01T05:35:02.923Z,8.1
2018-11-01T05:40:02.504Z,7.9
2018-11-01T05:45:03.125Z,7.9
2018-11-01T05:50:02.626Z,7.6
2018-11-01T05:55:03.250Z,7.9
2018-11-01T06:00:02.912Z,7.9
2018-11-01T06:05:03.049Z,7.9
2018-11-01T06:10:02.730Z,7.9
2018-11-01T06:15:02.449Z,7.9
2018-11-01T06:20:03.137Z,8.0
2018-11-01T06:25:02.810Z,8.1
2018-11-01T06:30:02.535Z,8.0
2018-11-01T06:35:03.273Z,8.0
2018-11-01T06:40:02.967Z,8.0
2018-11-01T06:45:02.535Z,8.0
2018-11-01T06:50:03.177Z,7.9
2018-11-01T06:55:02.700Z,7.9
2018-11-01T07:00:03.218Z,7.6
2018-11-01T07:05:02.836Z,7.6
2018-11-01T07:10:02.493Z,7.6
2018-11-01T07:15:03.086Z,7.6
2018-11-01T07:20:02.721Z,7.6
2018-11-01T07:25:02.307Z,7.9
2018-11-01T07:30:02.920Z,7.6
2018-11-01T07:35:02.545Z,7.6
2018-11-01T07:40:03.436Z,8.0
2018-11-01T07:45:02.835Z,8.3
2018-11-01T07:50:02.496Z,8.5
2018-11-01T07:55:03.041Z,8.6
2018-11-01T08:00:03.008Z,8.8
2018-11-01T08:05:02.627Z,9.1
2018-11-01T08:10:02.351Z,9.3
2018-11-01T08:15:03.042Z,9.8
2018-11-01T08:20:03.035Z,10.0
2018-11-01T08:25:02.508Z,10.1
2018-11-01T08:30:03.212Z,10.1
2018-11-01T08:35:02.750Z,10.3
2018-11-01T08:40:02.423Z,10.6
2018-11-01T08:45:03.107Z,10.8
2018-11-01T08:50:02.786Z,11.1
2018-11-01T08:55:02.999Z,11.3
2018-11-01T09:00:02.605Z,11.6
2018-11-01T09:05:02.310Z,11.6
2018-11-01T09:10:02.980Z,12.0
2018-11-01T09:15:02.596Z,12.1
2018-11-01T09:20:02.474Z,12.3
2018-11-01T09:25:03.179Z,12.3
2018-11-01T09:30:02.764Z,12.0
2018-11-01T09:35:02.512Z,12.1
2018-11-01T09:40:03.291Z,12.3
2018-11-01T09:45:02.979Z,12.1
2018-11-01T09:50:02.724Z,12.1
2018-11-01T09:55:02.282Z,12.0
2018-11-01T10:00:02.947Z,12.1
2018-11-01T10:05:02.525Z,12.1
2018-11-01T10:10:03.221Z,12.1
2018-11-01T10:15:03.026Z,12.1
2018-11-01T10:20:02.422Z,12.3
2018-11-01T10:25:03.109Z,12.5
2018-11-01T10:30:02.939Z,12.6
2018-11-01T10:35:02.588Z,12.8
2018-11-01T10:40:02.316Z,12.5
2018-11-01T10:45:02.938Z,12.6
2018-11-01T10:50:02.597Z,12.5
2018-11-01T10:55:02.281Z,12.8
2018-11-01T11:00:02.947Z,12.5
2018-11-01T11:05:03.055Z,12.3
2018-11-01T11:10:02.754Z,12.3
2018-11-01T11:15:02.350Z,12.5
2018-11-01T11:20:03.077Z,12.8
2018-11-01T11:25:02.388Z,12.3
2018-11-01T11:30:03.080Z,12.5
2018-11-01T11:35:02.439Z,12.3
2018-11-01T11:40:03.091Z,12.3
2018-11-01T11:45:02.711Z,12.5
2018-11-01T11:50:02.440Z,12.8
2018-11-01T11:55:03.188Z,12.6
2018-11-01T12:00:02.787Z,12.8
2018-11-01T12:05:02.358Z,12.6
2018-11-01T12:10:02.985Z,12.5
2018-11-01T12:15:02.565Z,12.3
2018-11-01T12:20:03.209Z,12.1
2018-11-01T12:25:02.822Z,12.1
2018-11-01T12:30:02.385Z,12.1
2018-11-01T12:35:03.135Z,12.1
2018-11-01T12:40:03.128Z,12.0
2018-11-01T12:45:02.666Z,12.1
2018-11-01T12:50:02.456Z,12.1
2018-11-01T12:55:02.429Z,12.1
2018-11-01T13:00:03.026Z,12.1
2018-11-01T13:05:02.667Z,12.1
2018-11-01T13:10:02.377Z,12.1
2018-11-01T13:15:03.000Z,12.1
2018-11-01T13:20:02.608Z,12.1
2018-11-01T13:25:03.223Z,12.0
2018-11-01T13:30:02.896Z,12.0
2018-11-01T13:35:02.704Z,12.0
2018-11-01T13:40:03.064Z,12.0
2018-11-01T13:45:02.493Z,11.8
2018-11-01T13:50:03.165Z,11.8
2018-11-01T13:55:02.826Z,11.8
2018-11-01T14:00:02.450Z,11.6
2018-11-01T14:05:03.028Z,11.6
2018-11-01T14:10:02.687Z,11.6
2018-11-01T14:15:03.727Z,11.6
2018-11-01T14:20:02.782Z,11.3
2018-11-01T14:25:02.380Z,11.3
2018-11-01T14:30:02.914Z,11.3
2018-11-01T14:35:02.582Z,11.1
2018-11-01T14:40:03.151Z,10.8
2018-11-01T14:45:02.730Z,9.3
2018-11-01T14:50:02.335Z,9.0
2018-11-01T14:55:03.763Z,9.0
2018-11-01T15:00:03.275Z,9.0
2018-11-01T15:05:02.863Z,9.0
2018-11-01T15:10:02.559Z,9.0
2018-11-01T15:15:03.263Z,9.0
2018-11-01T15:20:02.955Z,9.0
2018-11-01T15:25:02.676Z,8.8
2018-11-01T15:30:03.318Z,8.6
2018-11-01T15:35:02.431Z,8.8
2018-11-01T15:40:03.349Z,8.8
2018-11-01T15:45:02.829Z,8.6
2018-11-01T15:50:02.362Z,8.6
2018-11-01T15:55:03.138Z,8.5
2018-11-01T16:00:02.843Z,8.5
2018-11-01T16:05:02.456Z,8.5
2018-11-01T16:10:02.355Z,8.5
2018-11-01T16:15:02.700Z,8.6
2018-11-01T16:20:02.626Z,8.5
2018-11-01T16:25:02.898Z,8.6
2018-11-01T16:30:02.566Z,8.6
2018-11-01T16:35:03.245Z,8.6
2018-11-01T16:40:02.972Z,8.6
2018-11-01T16:45:02.678Z,8.6
2018-11-01T16:50:02.939Z,8.5
2018-11-01T16:55:02.621Z,8.5
2018-11-01T17:00:02.352Z,8.5
2018-11-01T17:05:03.216Z,8.5
2018-11-01T17:10:03.075Z,8.6
2018-11-01T17:15:03.194Z,8.6
2018-11-01T17:20:02.296Z,8.5
2018-11-01T17:25:03.106Z,8.6
2018-11-01T17:30:02.643Z,8.5
2018-11-01T17:35:02.350Z,8.6
2018-11-01T17:40:03.053Z,8.6
2018-11-01T17:45:02.716Z,8.6
2018-11-01T17:50:02.379Z,8.6
2018-11-01T17:55:03.073Z,8.6
2018-11-01T18:00:02.749Z,8.8
2018-11-01T18:05:02.476Z,8.8
2018-11-01T18:10:03.303Z,8.6
2018-11-01T18:15:03.012Z,8.6
2018-11-01T18:20:02.595Z,8.6
2018-11-01T18:25:03.261Z,8.6
2018-11-01T18:30:02.923Z,8.6
2018-11-01T18:35:02.854Z,8.6
2018-11-01T18:40:02.616Z,8.6
2018-11-01T18:45:02.391Z,8.6
2018-11-01T18:50:03.017Z,8.6
2018-11-01T18:55:02.935Z,8.8
2018-11-01T19:00:02.621Z,8.8
2018-11-01T19:05:02.891Z,8.8
2018-11-01T19:10:02.522Z,8.8
2018-11-01T19:15:03.161Z,8.8
2018-11-01T19:20:02.810Z,9.0
2018-11-01T19:25:02.558Z,8.8
2018-11-01T19:30:03.230Z,9.0
2018-11-01T19:35:02.920Z,8.8
2018-11-01T19:40:03.000Z,9.0
2018-11-01T19:45:02.517Z,9.1
2018-11-01T19:50:03.200Z,9.0
2018-11-01T19:55:02.874Z,9.1
2018-11-01T20:00:02.577Z,9.0
2018-11-01T20:05:03.261Z,9.0
2018-11-01T20:10:03.016Z,9.0
2018-11-01T20:15:03.255Z,9.0
2018-11-01T20:20:03.034Z,9.1
2018-11-01T20:25:02.715Z,9.0
2018-11-01T20:30:02.705Z,9.1
2018-11-01T20:35:02.448Z,9.1
2018-11-01T20:40:03.108Z,9.1
2018-11-01T20:45:02.752Z,9.1
2018-11-01T20:50:02.908Z,9.1
2018-11-01T20:55:03.064Z,9.1
2018-11-01T21:00:02.889Z,9.0
2018-11-01T21:05:02.874Z,9.1
2018-11-01T21:10:02.351Z,9.1
2018-11-01T21:15:02.987Z,9.0
2018-11-01T21:20:02.566Z,9.1
2018-11-01T21:25:03.245Z,9.1
2018-11-01T21:30:02.733Z,9.1
2018-11-01T21:35:02.444Z,9.0
2018-11-01T21:40:02.715Z,9.0
2018-11-01T21:45:02.425Z,9.1
2018-11-01T21:50:03.068Z,9.1
2018-11-01T21:55:02.690Z,9.1
2018-11-01T22:00:03.305Z,9.0
2018-11-01T22:05:02.907Z,9.1
2018-11-01T22:10:02.524Z,9.0
2018-11-01T22:15:03.182Z,9.0
2018-11-01T22:20:02.739Z,9.1
2018-11-01T22:25:02.431Z,9.1
2018-11-01T22:30:03.123Z,9.1
2018-11-01T22:35:02.652Z,9.1
2018-11-01T22:40:02.319Z,9.1
2018-11-01T22:45:03.031Z,9.3
2018-11-01T22:50:02.601Z,9.1
2018-11-01T22:55:03.207Z,9.1
2018-11-01T23:00:03.038Z,9.1
2018-11-01T23:05:02.898Z,9.3
2018-11-01T23:10:02.627Z,9.1
2018-11-01T23:15:02.282Z,9.3
2018-11-01T23:20:02.990Z,9.3
2018-11-01T23:25:02.741Z,9.3
2018-11-01T23:30:02.318Z,9.5
2018-11-01T23:35:02.901Z,9.6
2018-11-01T23:40:02.917Z,9.6
2018-11-01T23:45:03.007Z,10.0
2018-11-01T23:50:02.717Z,10.0
2018-11-01T23:55:02.340Z,9.3
